Time;durP1;ratioP1;P1;durP2;ratioP2;P2;SDS_P1;SDS_P2;PMS_P1;PMS_P2;Temp;Humidity;BMP_temperature;BMP_pressure;BME280_temperature;BME280_humidity;BME280_pressure;Samples;Min_cycle;Max_cycle;Signal;HPM_P1;HPM_P2
2021/09/26 00:00:40;;;;;;;0.30;0.30;;;;;;;7.75;55.41;98527.84;5094207;28;20048;-66
2021/09/26 00:03:06;;;;;;;0.25;0.25;;;;;;;7.74;55.32;98517.97;5094048;28;20442;-67
2021/09/26 00:05:32;;;;;;;0.30;0.30;;;;;;;7.75;55.53;98525.09;5094192;28;20040;-65
2021/09/26 00:07:58;;;;;;;0.55;0.35;;;;;;;7.75;55.46;98514.19;5094334;28;20047;-66
2021/09/26 00:10:23;;;;;;;0.22;0.22;;;;;;;7.75;55.53;98516.91;5093884;28;20051;-67
2021/09/26 00:12:49;;;;;;;0.43;0.43;;;;;;;7.76;55.60;98530.34;5093679;28;20490;-65
2021/09/26 00:15:19;;;;;;;0.30;0.30;;;;;;;7.74;55.56;98520.69;5094079;28;20522;-66
2021/09/26 00:17:46;;;;;;;0.40;0.40;;;;;;;7.72;55.55;98527.22;5094040;28;20036;-66
2021/09/26 00:20:12;;;;;;;0.52;0.40;;;;;;;7.67;55.78;98518.88;5094226;28;20120;-64
2021/09/26 00:22:38;;;;;;;0.98;0.50;;;;;;;7.62;56.01;98524.16;5093636;28;20166;-64
2021/09/26 00:25:06;;;;;;;0.13;0.13;;;;;;;7.62;55.89;98517.84;5093561;28;20126;-65
2021/09/26 00:27:31;;;;;;;0.57;0.57;;;;;;;7.62;56.01;98521.41;5093646;28;20039;-64
2021/09/26 00:29:57;;;;;;;4.65;0.77;;;;;;;7.64;55.83;98529.38;5092937;28;20051;-65
2021/09/26 00:32:23;;;;;;;0.30;0.30;;;;;;;7.64;55.95;98529.38;5093428;28;20122;-65
2021/09/26 00:34:49;;;;;;;0.20;0.20;;;;;;;7.59;56.00;98526.50;5093636;28;20051;-65
2021/09/26 00:37:15;;;;;;;1.13;0.50;;;;;;;7.53;56.08;98520.84;5075182;28;20067;-66
2021/09/26 00:39:41;;;;;;;0.22;0.22;;;;;;;7.52;56.20;98516.47;5093182;28;20044;-66
2021/09/26 00:42:07;;;;;;;0.50;0.50;;;;;;;7.47;56.45;98524.47;5093401;28;20155;-64
2021/09/26 00:44:33;;;;;;;0.38;0.38;;;;;;;7.44;56.40;98518.63;5093583;28;20670;-64
2021/09/26 00:46:59;;;;;;;0.38;0.38;;;;;;;7.41;56.48;98525.38;5093426;28;20040;-64
2021/09/26 00:49:25;;;;;;;0.30;0.30;;;;;;;7.35;56.62;98521.63;5093091;28;20498;-64
2021/09/26 00:51:51;;;;;;;0.20;0.20;;;;;;;7.34;56.71;98522.66;5093154;28;20051;-63
2021/09/26 00:54:18;;;;;;;0.47;0.47;;;;;;;7.29;56.59;98516.22;5092937;28;20048;-63
2021/09/26 00:56:50;;;;;;;0.40;0.40;;;;;;;7.25;56.95;98526.72;5092986;28;20472;-64
2021/09/26 00:59:21;;;;;;;0.10;0.10;;;;;;;7.23;56.92;98526.13;5074209;28;20073;-63
2021/09/26 01:01:48;;;;;;;0.40;0.40;;;;;;;7.21;57.23;98536.41;5093192;28;20489;-63
2021/09/26 01:04:16;;;;;;;0.20;0.20;;;;;;;7.20;56.95;98540.22;5091558;28;20406;-64
2021/09/26 01:07:03;;;;;;;0.50;0.50;;;;;;;7.18;57.02;98539.59;5092850;28;20089;-63
2021/09/26 01:09:52;;;;;;;2.22;0.85;;;;;;;7.17;56.97;98555.16;5093226;28;20066;-62
2021/09/26 01:12:50;;;;;;;0.30;0.30;;;;;;;7.13;57.09;98562.09;5093132;28;20444;-63
2021/09/26 01:15:29;;;;;;;0.28;0.28;;;;;;;7.10;57.19;98565.25;5092669;28;20131;-63
2021/09/26 01:18:28;;;;;;;0.20;0.20;;;;;;;7.06;57.21;98571.38;5093169;28;20051;-63
2021/09/26 01:21:02;;;;;;;0.20;0.20;;;;;;;6.99;57.43;98561.34;5092872;28;20561;-63
2021/09/26 01:23:34;;;;;;;0.50;0.40;;;;;;;7.00;57.35;98573.91;5092735;28;20513;-64
2021/09/26 01:26:51;;;;;;;0.52;0.52;;;;;;;7.02;57.25;98562.78;5092516;28;20138;-63
2021/09/26 01:29:16;;;;;;;0.40;0.30;;;;;;;6.97;57.28;98566.16;5037110;28;20039;-63
2021/09/26 01:31:50;;;;;;;0.32;0.25;;;;;;;6.96;57.41;98561.78;5074406;28;20036;-64
2021/09/26 01:34:28;;;;;;;0.25;0.25;;;;;;;6.99;57.35;98571.41;5092710;28;20040;-63
2021/09/26 01:37:11;;;;;;;0.20;0.20;;;;;;;6.99;57.36;98568.69;5092503;28;20096;-63
2021/09/26 01:39:44;;;;;;;0.22;0.22;;;;;;;6.94;57.43;98574.78;5092769;28;20065;-63
2021/09/26 01:42:17;;;;;;;0.40;0.40;;;;;;;6.94;57.38;98569.34;5091586;28;20051;-63
2021/09/26 01:44:53;;;;;;;0.20;0.20;;;;;;;6.99;57.35;98565.94;5092445;28;20040;-63
2021/09/26 01:47:22;;;;;;;0.90;0.47;;;;;;;7.06;57.21;98561.28;5092450;28;20051;-63
2021/09/26 01:49:57;;;;;;;0.20;0.20;;;;;;;7.07;57.25;98573.06;5092348;28;20039;-63
2021/09/26 01:52:30;;;;;;;0.30;0.30;;;;;;;7.05;57.28;98562.34;5092508;28;20066;-64
2021/09/26 01:54:56;;;;;;;0.35;0.35;;;;;;;7.06;57.27;98560.47;5092126;28;20046;-64
2021/09/26 01:57:23;;;;;;;1.30;0.40;;;;;;;7.08;57.27;98559.19;5092084;28;20080;-64
2021/09/26 01:59:55;;;;;;;0.20;0.20;;;;;;;7.04;57.54;98573.47;5091713;28;20048;-63
2021/09/26 02:02:21;;;;;;;0.30;0.30;;;;;;;6.94;57.54;98572.06;5092654;28;20048;-63
2021/09/26 02:05:00;;;;;;;0.20;0.20;;;;;;;6.88;57.95;98563.91;5091959;28;20434;-64
2021/09/26 02:07:27;;;;;;;0.20;0.20;;;;;;;6.84;57.95;98574.41;5092462;28;20071;-64
2021/09/26 02:09:54;;;;;;;0.20;0.20;;;;;;;6.82;58.19;98561.00;5092210;28;20036;-63
2021/09/26 02:12:21;;;;;;;0.40;0.40;;;;;;;6.87;57.85;98573.16;5092482;28;20044;-63
2021/09/26 02:14:48;;;;;;;0.20;0.20;;;;;;;6.87;57.89;98567.69;5092163;28;21039;-64
2021/09/26 02:17:16;;;;;;;0.30;0.30;;;;;;;6.82;57.96;98566.44;5092216;28;20075;-65
2021/09/26 02:19:43;;;;;;;1.40;0.50;;;;;;;6.82;57.95;98577.38;5091780;28;20052;-64
2021/09/26 02:22:09;;;;;;;0.20;0.20;;;;;;;6.81;57.94;98561.22;5092158;28;20048;-65
2021/09/26 02:24:37;;;;;;;0.20;0.20;;;;;;;6.83;58.01;98578.19;5091906;28;20044;-65
2021/09/26 02:27:03;;;;;;;0.25;0.25;;;;;;;6.77;58.13;98582.66;5091952;28;20108;-64
2021/09/26 02:29:29;;;;;;;0.20;0.20;;;;;;;6.70;58.30;98575.50;5091514;28;20392;-63
2021/09/26 02:31:55;;;;;;;0.20;0.20;;;;;;;6.66;58.39;98566.94;5091979;28;20067;-63
2021/09/26 02:34:21;;;;;;;0.80;0.47;;;;;;;6.63;58.31;98561.91;5092185;28;20074;-64
2021/09/26 02:36:46;;;;;;;0.55;0.40;;;;;;;6.65;58.37;98563.38;5092034;28;20044;-62
2021/09/26 02:39:18;;;;;;;0.20;0.20;;;;;;;6.68;58.18;98543.00;5091869;28;20079;-63
2021/09/26 02:42:08;;;;;;;0.40;0.40;;;;;;;6.75;57.97;98541.06;5091739;28;20470;-62
2021/09/26 02:44:55;;;;;;;0.20;0.20;;;;;;;6.82;57.85;98543.78;5091938;28;20073;-63
2021/09/26 02:47:25;;;;;;;0.40;0.40;;;;;;;6.85;57.73;98537.88;5073713;28;20051;-63
2021/09/26 02:49:52;;;;;;;0.28;0.28;;;;;;;6.84;57.73;98536.22;5091918;28;20131;-62
2021/09/26 02:52:21;;;;;;;0.20;0.20;;;;;;;6.82;57.77;98536.44;5073396;28;20417;-62
2021/09/26 02:54:47;;;;;;;0.20;0.20;;;;;;;6.80;57.76;98556.78;5094014;28;20088;-63
2021/09/26 02:57:13;;;;;;;0.28;0.28;;;;;;;6.73;58.00;98537.75;5077095;28;20047;-63
2021/09/26 02:59:40;;;;;;;0.40;0.40;;;;;;;6.75;58.36;98546.53;5094811;28;20092;-62
2021/09/26 03:02:06;;;;;;;0.20;0.20;;;;;;;6.75;57.71;98542.97;5095431;28;20044;-65
2021/09/26 03:04:32;;;;;;;0.28;0.28;;;;;;;6.69;58.17;98552.03;5095687;28;20051;-63
2021/09/26 03:06:58;;;;;;;0.20;0.20;;;;;;;6.63;58.25;98556.47;5094866;28;20036;-64
2021/09/26 03:09:24;;;;;;;0.20;0.20;;;;;;;6.63;58.45;98551.00;5095052;28;20122;-62
2021/09/26 03:11:50;;;;;;;0.30;0.30;;;;;;;6.68;58.34;98564.81;5095161;28;20044;-63
2021/09/26 03:14:16;;;;;;;0.20;0.20;;;;;;;6.70;58.28;98550.97;5094754;28;20044;-62
2021/09/26 03:16:42;;;;;;;1.23;0.47;;;;;;;6.71;58.17;98549.91;5095200;28;20561;-62
2021/09/26 03:19:08;;;;;;;0.43;0.43;;;;;;;6.72;58.28;98548.88;5094821;28;20048;-64
2021/09/26 03:21:34;;;;;;;0.80;0.30;;;;;;;6.68;58.14;98533.97;5094748;28;20487;-66
2021/09/26 03:23:59;;;;;;;0.20;0.20;;;;;;;6.66;58.25;98535.03;5094518;28;20074;-65
2021/09/26 03:26:25;;;;;;;0.50;0.50;;;;;;;6.66;58.29;98539.66;5094628;28;20130;-65
2021/09/26 03:28:52;;;;;;;0.38;0.38;;;;;;;6.66;58.31;98547.84;5094583;28;20519;-64
2021/09/26 03:31:19;;;;;;;0.45;0.45;;;;;;;6.62;58.43;98536.50;5094527;28;20155;-65
2021/09/26 03:33:45;;;;;;;0.22;0.22;;;;;;;6.62;58.31;98532.94;5094361;28;20487;-65
2021/09/26 03:36:11;;;;;;;0.20;0.20;;;;;;;6.52;58.60;98527.13;5094392;28;20043;-63
2021/09/26 03:38:37;;;;;;;0.20;0.20;;;;;;;6.41;58.87;98542.28;5094632;28;20461;-63
2021/09/26 03:48:28;;;;;;;0.50;0.50;;;;;;;6.25;58.95;98533.47;5088747;28;20059;-62
2021/09/26 04:01:42;;;;;;;0.20;0.20;;;;;;;6.29;58.57;98537.47;5088244;28;20055;-63
2021/09/26 04:04:48;;;;;;;1.33;1.23;;;;;;;6.25;58.54;98533.47;5093515;28;20036;-60
2021/09/26 04:11:20;;;;;;;0.20;0.20;;;;;;;6.19;58.75;98547.97;5089591;28;20093;-62
2021/09/26 04:27:58;;;;;;;0.40;0.40;;;;;;;6.28;58.46;98587.59;5088224;28;20108;-65
2021/09/26 04:31:04;;;;;;;0.20;0.20;;;;;;;6.39;58.17;98579.81;5092814;28;20040;-67
2021/09/26 04:37:33;;;;;;;0.20;0.20;;;;;;;6.53;57.94;98589.63;5089112;28;20093;-64
2021/09/26 04:47:26;;;;;;;0.20;0.20;;;;;;;6.82;57.45;98595.63;5089266;28;20051;-64
2021/09/26 04:53:53;;;;;;;0.20;0.20;;;;;;;6.94;57.25;98596.63;5092732;28;20089;-65
2021/09/26 04:56:58;;;;;;;0.20;0.20;;;;;;;6.95;57.33;98592.84;5092680;28;20039;-63
2021/09/26 04:59:45;;;;;;;;;;;;;;;6.98;57.17;98603.34;5092624;28;20058;-66
2021/09/26 05:09:36;;;;;;;0.10;0.10;;;;;;;6.84;57.53;98597.06;5087503;28;20042;-61
2021/09/26 05:12:21;;;;;;;;;;;;;;;6.75;57.69;98597.56;5089431;28;20048;-63
2021/09/26 05:22:13;;;;;;;0.57;0.57;;;;;;;6.91;57.23;98577.13;5087327;28;20042;-63
2021/09/26 05:25:19;;;;;;;0.20;0.20;;;;;;;6.86;57.34;98579.66;5089268;28;20047;-62
2021/09/26 05:28:24;;;;;;;0.28;0.28;;;;;;;6.86;57.42;98585.13;5090794;28;20044;-64
2021/09/26 05:31:10;;;;;;;;;;;;;;;6.83;57.42;98594.56;5091202;28;20398;-61
2021/09/26 05:37:38;;;;;;;0.20;0.20;;;;;;;6.90;57.20;98600.84;5076417;28;20105;-62
2021/09/26 05:40:23;;;;;;;;;;;;;;;6.93;57.15;98596.84;5085792;28;20383;-65
2021/09/26 05:43:29;;;;;;;0.25;0.25;;;;;;;6.94;57.05;98606.72;5078929;28;19926;-63
2021/09/26 05:46:34;;;;;;;0.30;0.30;;;;;;;7.00;57.04;98611.31;5065490;28;20040;-63
2021/09/26 05:49:40;;;;;;;0.20;0.20;;;;;;;7.01;56.90;98597.44;5080326;28;20031;-62
2021/09/26 05:52:47;;;;;;;0.30;0.30;;;;;;;7.03;57.12;98599.13;5068960;28;20126;-64
2021/09/26 09:05:27;;;;;;;0.22;0.22;;;;;;;9.73;53.23;98637.16;5067757;28;20122;-61
2021/09/26 09:08:12;;;;;;;0.28;0.25;;;;;;;9.46;53.80;98629.28;5070633;28;20103;-62
2021/09/26 09:10:46;;;;;;;0.20;0.20;;;;;;;9.41;54.00;98640.13;5072666;28;20048;-61
2021/09/26 09:13:14;;;;;;;0.20;0.20;;;;;;;9.46;53.91;98648.47;5072340;28;20040;-62
2021/09/26 09:15:49;;;;;;;0.20;0.20;;;;;;;9.45;53.80;98648.72;5072743;28;20044;-62
2021/09/26 09:18:15;;;;;;;0.20;0.20;;;;;;;9.54;53.74;98633.63;5072234;28;20102;-61
2021/09/26 09:20:43;;;;;;;0.22;0.22;;;;;;;9.72;53.13;98638.22;5072285;28;20063;-62
2021/09/26 09:23:16;;;;;;;0.30;0.30;;;;;;;10.07;52.58;98645.72;5072290;28;20040;-63
2021/09/26 09:25:52;;;;;;;0.70;0.22;;;;;;;10.27;51.77;98637.13;5072720;28;20091;-62
2021/09/26 09:28:20;;;;;;;0.20;0.20;;;;;;;10.22;52.22;98653.47;5072134;28;20410;-60
2021/09/26 09:30:49;;;;;;;0.20;0.20;;;;;;;10.08;52.52;98652.03;5071771;28;20071;-61
2021/09/26 09:33:17;;;;;;;0.20;0.20;;;;;;;10.04;52.47;98656.31;5072365;28;20041;-64
2021/09/26 09:35:48;;;;;;;0.63;0.63;;;;;;;10.16;52.53;98655.25;5072179;28;20048;-60
2021/09/26 09:38:29;;;;;;;0.30;0.30;;;;;;;10.42;52.18;98666.88;5072231;28;20044;-62
2021/09/26 09:40:57;;;;;;;0.20;0.20;;;;;;;10.44;51.82;98666.66;5072442;28;20040;-62
2021/09/26 09:43:23;;;;;;;0.20;0.20;;;;;;;10.17;52.50;98667.91;5071960;28;20041;-62
2021/09/26 09:45:55;;;;;;;0.30;0.30;;;;;;;9.78;53.07;98661.97;5072161;28;20033;-60
2021/09/26 09:48:27;;;;;;;0.10;0.10;;;;;;;9.44;53.71;98656.09;5072511;28;20044;-62
2021/09/26 09:50:55;;;;;;;0.30;0.30;;;;;;;9.16;54.24;98677.75;5054108;28;20401;-61
2021/09/26 09:53:45;;;;;;;0.20;0.20;;;;;;;8.89;54.75;98681.66;5072390;28;20048;-62
2021/09/26 09:56:20;;;;;;;0.20;0.20;;;;;;;8.65;55.17;98669.66;5054153;28;20040;-63
2021/09/26 09:58:49;;;;;;;0.38;0.30;;;;;;;8.56;55.20;98691.00;5070462;28;20044;-61
2021/09/26 10:01:24;;;;;;;0.20;0.20;;;;;;;8.50;55.07;98689.19;5071054;28;20072;-61
2021/09/26 10:03:53;;;;;;;0.20;0.20;;;;;;;8.44;54.99;98692.81;5075113;28;20041;-60
2021/09/26 10:06:37;;;;;;;0.20;0.20;;;;;;;8.34;54.94;98687.81;5075810;28;20565;-63
2021/09/26 10:09:19;;;;;;;0.22;0.22;;;;;;;8.38;54.82;98689.03;5075900;28;20048;-61
2021/09/26 10:11:57;;;;;;;0.28;0.28;;;;;;;8.35;54.69;98688.66;5075706;28;20467;-62
2021/09/26 10:14:26;;;;;;;0.20;0.20;;;;;;;8.36;54.51;98691.19;5076102;28;20045;-61
2021/09/26 10:16:54;;;;;;;0.20;0.20;;;;;;;8.37;54.48;98700.22;5075894;28;20044;-60
2021/09/26 10:19:24;;;;;;;0.10;0.10;;;;;;;8.35;54.42;98692.22;5075807;28;20105;-62
2021/09/26 10:21:55;;;;;;;0.20;0.20;;;;;;;8.31;54.67;98693.72;5075609;28;20051;-61
2021/09/26 10:24:23;;;;;;;0.30;0.30;;;;;;;8.29;54.59;98684.91;5075467;28;20086;-61
2021/09/26 10:26:51;;;;;;;0.40;0.38;;;;;;;8.36;54.14;98699.38;5074523;28;20037;-61
2021/09/26 10:29:20;;;;;;;0.30;0.30;;;;;;;8.39;54.12;98696.19;5074981;28;20251;-61
2021/09/26 10:31:49;;;;;;;0.20;0.20;;;;;;;8.42;53.96;98700.34;5075619;28;20075;-61
2021/09/26 10:34:16;;;;;;;0.20;0.20;;;;;;;8.35;54.32;98705.06;5057579;28;20045;-61
2021/09/26 10:36:44;;;;;;;0.20;0.20;;;;;;;8.23;54.45;98711.25;5075611;28;20123;-61
2021/09/26 10:39:10;;;;;;;0.10;0.10;;;;;;;8.20;54.53;98740.94;5074968;28;20048;-61
2021/09/26 10:41:56;;;;;;;0.20;0.20;;;;;;;8.14;54.56;98707.13;5075351;28;20037;-61
2021/09/26 10:44:27;;;;;;;0.30;0.30;;;;;;;8.15;54.57;98713.44;5075481;28;20534;-61
2021/09/26 10:47:17;;;;;;;0.43;0.43;;;;;;;8.21;54.23;98707.88;5075778;28;20414;-60
2021/09/26 10:49:51;;;;;;;0.20;0.20;;;;;;;8.30;53.87;98708.47;5057693;28;20043;-62
2021/09/26 10:52:24;;;;;;;;;;;;;;;8.32;53.75;98738.31;5075616;28;20049;-60
2021/09/26 10:54:51;;;;;;;0.40;0.40;;;;;;;8.22;53.77;98716.97;5075160;28;19922;-62
2021/09/26 10:57:21;;;;;;;0.20;0.20;;;;;;;8.11;53.99;98715.75;5075153;28;20141;-61
2021/09/26 10:59:54;;;;;;;0.25;0.25;;;;;;;8.07;54.05;98720.84;5074434;28;20109;-61
2021/09/26 11:02:22;;;;;;;0.20;0.20;;;;;;;7.93;54.40;98721.97;5074483;28;20574;-61
2021/09/26 11:04:49;;;;;;;0.30;0.30;;;;;;;7.84;54.54;98739.72;5074852;28;20079;-61
2021/09/26 11:07:29;;;;;;;0.20;0.20;;;;;;;7.72;54.71;98712.22;5074801;28;20058;-59
2021/09/26 11:09:56;;;;;;;0.20;0.20;;;;;;;7.68;54.65;98733.69;5074836;28;20057;-60
2021/09/26 11:12:51;;;;;;;0.20;0.20;;;;;;;7.51;54.92;98754.38;5074583;28;20158;-61
2021/09/26 11:15:23;;;;;;;0.30;0.30;;;;;;;7.25;55.37;98747.94;5073409;28;20040;-60
2021/09/26 11:17:55;;;;;;;0.20;0.20;;;;;;;7.17;55.61;98748.19;5074920;28;20036;-61
2021/09/26 11:20:29;;;;;;;0.30;0.30;;;;;;;7.11;55.48;98741.69;5065559;28;20131;-63
2021/09/26 11:23:04;;;;;;;0.20;0.20;;;;;;;7.16;55.15;98735.59;5057528;28;20040;-63
2021/09/26 11:26:00;;;;;;;0.20;0.20;;;;;;;7.23;54.98;98739.13;5072219;28;20749;-64
2021/09/26 11:28:29;;;;;;;0.20;0.20;;;;;;;7.19;54.85;98741.44;5071947;28;20482;-62
2021/09/26 11:30:56;;;;;;;0.20;0.20;;;;;;;7.22;54.92;98722.97;5072395;28;20040;-64
2021/09/26 11:33:22;;;;;;;0.30;0.30;;;;;;;7.22;54.82;98718.34;5072658;28;20055;-62
2021/09/26 11:35:48;;;;;;;0.20;0.20;;;;;;;7.24;54.73;98721.69;5072147;28;20041;-61
2021/09/26 11:38:19;;;;;;;0.20;0.20;;;;;;;7.24;54.64;98712.66;5072312;28;20051;-61
2021/09/26 11:40:53;;;;;;;0.20;0.20;;;;;;;7.21;54.63;98738.50;5069344;28;20037;-62
2021/09/26 11:43:25;;;;;;;0.20;0.20;;;;;;;7.15;54.82;98728.44;5070791;28;20888;-61
2021/09/26 11:45:54;;;;;;;0.20;0.20;;;;;;;7.09;54.72;98729.31;5071491;28;20047;-60
2021/09/26 11:48:31;;;;;;;0.20;0.20;;;;;;;7.00;54.97;98721.31;5072201;28;20518;-61
2021/09/26 11:51:03;;;;;;;0.20;0.20;;;;;;;6.97;54.88;98727.22;5072049;28;20044;-60
2021/09/26 11:53:29;;;;;;;0.30;0.30;;;;;;;6.90;55.09;98748.22;5072156;28;20131;-59
2021/09/26 11:55:56;;;;;;;0.20;0.20;;;;;;;6.86;55.14;98741.53;5071856;28;20040;-62
2021/09/26 11:58:29;;;;;;;0.25;0.25;;;;;;;6.85;55.11;98761.69;5071476;28;20542;-62
2021/09/26 12:00:54;;;;;;;0.50;0.50;;;;;;;6.78;55.23;98758.94;5068647;28;20441;-61
2021/09/26 12:03:33;;;;;;;0.20;0.20;;;;;;;6.74;55.26;98754.97;5071648;28;20101;-61
2021/09/26 12:06:00;;;;;;;0.20;0.20;;;;;;;6.71;55.36;98757.28;5071793;28;20091;-62
2021/09/26 12:08:36;;;;;;;0.85;0.85;;;;;;;6.73;55.28;98750.56;5071699;28;20131;-61
2021/09/26 12:11:08;;;;;;;0.20;0.20;;;;;;;6.77;55.21;98753.72;5071787;28;20071;-62
2021/09/26 12:13:44;;;;;;;0.20;0.20;;;;;;;6.82;55.06;98753.94;5071551;28;20079;-61
2021/09/26 12:16:10;;;;;;;0.20;0.20;;;;;;;6.87;54.87;98754.13;5067977;28;20041;-62
2021/09/26 12:18:36;;;;;;;0.20;0.20;;;;;;;6.90;54.84;98764.59;5068839;28;20051;-65
2021/09/26 12:21:05;;;;;;;0.30;0.30;;;;;;;6.85;54.95;98750.78;5071719;28;20574;-64
2021/09/26 12:23:53;;;;;;;0.30;0.30;;;;;;;6.73;55.26;98757.91;5071606;28;20051;-64
2021/09/26 12:26:36;;;;;;;0.75;0.38;;;;;;;6.62;55.39;98743.03;5071107;28;20110;-61
2021/09/26 12:29:11;;;;;;;0.20;0.20;;;;;;;6.56;55.47;98769.25;5052881;28;20513;-66
2021/09/26 12:31:41;;;;;;;0.30;0.30;;;;;;;6.48;55.58;98753.94;5051188;28;20478;-65
2021/09/26 12:34:08;;;;;;;0.20;0.20;;;;;;;6.46;55.60;98747.00;5071034;28;20033;-66
2021/09/26 12:36:40;;;;;;;0.20;0.20;;;;;;;6.41;55.68;98755.81;5071064;28;20079;-66
2021/09/26 12:39:11;;;;;;;1.27;0.50;;;;;;;6.30;55.87;98754.56;5071096;28;20625;-65
2021/09/26 12:41:37;;;;;;;0.47;0.47;;;;;;;6.25;55.93;98746.16;5068691;28;20155;-66
2021/09/26 12:44:07;;;;;;;0.32;0.32;;;;;;;6.23;55.87;98740.09;5070908;28;20404;-64
2021/09/26 12:46:36;;;;;;;0.50;0.50;;;;;;;6.22;55.82;98746.56;5069925;28;20100;-65
2021/09/26 12:49:10;;;;;;;0.20;0.20;;;;;;;6.25;55.76;98756.25;5066007;28;20044;-63
2021/09/26 12:51:40;;;;;;;0.75;0.47;;;;;;;6.21;55.71;98741.34;5070229;28;20546;-66
2021/09/26 12:54:08;;;;;;;1.08;1.08;;;;;;;6.16;55.89;98750.16;5070896;28;20036;-63
2021/09/26 12:56:40;;;;;;;0.20;0.20;;;;;;;6.06;55.87;98742.38;5070032;28;20049;-66
2021/09/26 12:59:23;;;;;;;0.50;0.50;;;;;;;5.99;56.02;98736.06;5070005;28;20403;-66
2021/09/26 13:02:01;;;;;;;0.52;0.52;;;;;;;5.97;56.06;98741.72;5050472;28;20101;-66
2021/09/26 13:04:27;;;;;;;0.20;0.20;;;;;;;5.94;56.01;98744.00;5070204;28;20044;-66
2021/09/26 13:06:56;;;;;;;0.20;0.20;;;;;;;5.90;56.20;98745.44;5070307;28;20061;-68
2021/09/26 13:09:26;;;;;;;0.20;0.20;;;;;;;5.84;56.08;98744.38;5070220;28;20110;-65
2021/09/26 13:11:52;;;;;;;0.65;0.47;;;;;;;5.82;56.11;98741.03;5070354;28;20068;-64
2021/09/26 13:14:18;;;;;;;0.20;0.20;;;;;;;5.79;56.03;98752.34;5052695;28;20124;-66
2021/09/26 13:16:46;;;;;;;0.30;0.30;;;;;;;5.76;56.01;98747.31;5070037;28;20041;-65
2021/09/26 13:19:51;;;;;;;0.25;0.25;;;;;;;5.75;56.10;98761.97;5067882;28;20044;-64
2021/09/26 13:22:17;;;;;;;1.17;0.50;;;;;;;5.68;56.15;98775.56;5053777;28;20135;-64
2021/09/26 13:24:53;;;;;;;0.30;0.30;;;;;;;5.60;56.34;98768.41;5070265;28;20131;-63
2021/09/26 13:27:39;;;;;;;0.20;0.20;;;;;;;5.53;56.56;98783.88;5067706;28;20485;-63
2021/09/26 13:30:31;;;;;;;0.30;0.30;;;;;;;5.36;56.90;98790.72;5064467;28;20459;-64
2021/09/26 13:33:00;;;;;;;0.30;0.30;;;;;;;5.25;57.05;98779.34;5057140;28;20518;-63
2021/09/26 13:35:30;;;;;;;0.20;0.20;;;;;;;5.17;57.16;98771.38;5069625;28;20423;-69
2021/09/26 13:38:25;;;;;;;2.38;0.55;;;;;;;5.14;57.25;98777.22;5049822;28;20048;-62
2021/09/26 13:41:10;;;;;;;0.57;0.57;;;;;;;5.11;57.23;98777.63;5052814;28;20039;-63
2021/09/26 13:43:42;;;;;;;0.20;0.20;;;;;;;5.06;57.13;98769.19;5060968;28;20040;-62
2021/09/26 13:46:09;;;;;;;0.55;0.30;;;;;;;5.05;57.19;98776.53;5057166;28;20234;-65
2021/09/26 13:48:39;;;;;;;0.30;0.30;;;;;;;5.10;57.07;98789.53;5063562;28;20040;-62
2021/09/26 13:51:10;;;;;;;0.30;0.30;;;;;;;5.11;57.06;98796.66;5056223;28;20351;-63
2021/09/26 13:53:42;;;;;;;0.77;0.55;;;;;;;5.07;57.06;98800.81;5059698;28;20407;-63
2021/09/26 13:56:09;;;;;;;0.25;0.25;;;;;;;5.01;57.11;98796.19;5059554;28;20036;-62
2021/09/26 13:58:36;;;;;;;0.35;0.35;;;;;;;4.97;57.20;98795.72;5056864;28;20567;-60
2021/09/26 14:01:06;;;;;;;0.25;0.25;;;;;;;5.00;57.18;98797.22;5065105;28;20116;-60
2021/09/26 14:03:32;;;;;;;0.30;0.30;;;;;;;5.00;57.07;98806.22;5066763;28;20478;-65
2021/09/26 14:06:00;;;;;;;0.30;0.30;;;;;;;5.06;56.71;98816.31;5065584;28;20059;-65
2021/09/26 14:08:26;;;;;;;0.20;0.20;;;;;;;5.11;56.70;98821.16;5062183;28;20036;-64
2021/09/26 14:10:52;;;;;;;0.40;0.40;;;;;;;5.08;56.70;98825.13;5069453;28;20045;-64
2021/09/26 14:13:20;;;;;;;0.20;0.20;;;;;;;5.08;56.59;98818.84;5043156;28;20045;-63
2021/09/26 14:15:49;;;;;;;0.20;0.20;;;;;;;5.10;56.55;98811.31;5063752;28;20534;-64
2021/09/26 14:18:15;;;;;;;0.20;0.20;;;;;;;5.13;56.29;98832.69;5049512;28;20041;-66
2021/09/26 14:20:41;;;;;;;0.20;0.20;;;;;;;5.16;56.21;98823.28;5065911;28;20072;-63
2021/09/26 14:23:09;;;;;;;0.20;0.20;;;;;;;5.17;56.18;98814.09;5066154;28;20049;-65
2021/09/26 14:25:37;;;;;;;0.30;0.30;;;;;;;5.17;56.03;98833.97;5065035;28;20563;-65
2021/09/26 14:28:04;;;;;;;0.20;0.20;;;;;;;5.14;56.06;98820.78;5069821;28;20052;-66
2021/09/26 14:30:30;;;;;;;0.40;0.40;;;;;;;5.15;56.04;98818.88;5065671;28;20438;-65
2021/09/26 14:32:55;;;;;;;0.20;0.20;;;;;;;5.15;55.99;98830.59;5065060;28;20051;-66
2021/09/26 14:35:21;;;;;;;0.22;0.22;;;;;;;5.18;55.81;98832.94;5061416;28;20045;-64
2021/09/26 14:37:47;;;;;;;0.20;0.20;;;;;;;5.22;55.63;98836.09;5069568;28;20561;-64
2021/09/26 14:40:15;;;;;;;0.20;0.20;;;;;;;5.20;55.62;98835.47;5063781;28;20050;-64
2021/09/26 14:42:45;;;;;;;0.40;0.40;;;;;;;5.22;55.60;98836.91;5063609;28;20570;-64
2021/09/26 14:45:13;;;;;;;0.20;0.20;;;;;;;5.26;55.38;98835.50;5064064;28;20056;-65
2021/09/26 14:47:39;;;;;;;0.20;0.20;;;;;;;5.27;55.37;98839.06;5067570;28;20604;-64
2021/09/26 14:50:07;;;;;;;0.22;0.22;;;;;;;5.28;55.31;98834.47;5068391;28;20071;-64
2021/09/26 14:52:34;;;;;;;0.43;0.43;;;;;;;5.29;55.33;98838.88;5073223;28;20510;-64
2021/09/26 14:55:01;;;;;;;0.20;0.20;;;;;;;5.30;55.28;98835.94;5069513;28;20090;-63
2021/09/26 14:57:27;;;;;;;0.40;0.40;;;;;;;5.30;55.07;98833.22;5068822;28;20479;-62
2021/09/26 14:59:53;;;;;;;0.20;0.20;;;;;;;5.30;55.13;98835.94;5070949;28;20037;-63
2021/09/26 15:02:18;;;;;;;0.20;0.20;;;;;;;5.32;54.87;98819.41;5058936;28;20575;-63
2021/09/26 15:04:47;;;;;;;0.20;0.20;;;;;;;5.31;54.83;98825.88;5055352;28;20211;-64
2021/09/26 15:07:13;;;;;;;0.20;0.20;;;;;;;5.36;54.69;98832.41;5062848;28;20048;-63
2021/09/26 15:09:39;;;;;;;0.20;0.20;;;;;;;5.36;54.69;98834.28;5060485;28;20073;-64
2021/09/26 15:12:09;;;;;;;0.80;0.73;;;;;;;5.34;54.66;98828.22;5063670;28;20075;-62
2021/09/26 15:14:35;;;;;;;0.20;0.20;;;;;;;5.34;54.74;98837.22;5062564;28;20033;-63
2021/09/26 15:17:02;;;;;;;0.20;0.20;;;;;;;5.37;54.54;98839.53;5063396;28;20047;-63
2021/09/26 15:19:28;;;;;;;0.20;0.20;;;;;;;5.39;54.49;98834.75;5064744;28;20052;-65
2021/09/26 15:21:54;;;;;;;0.20;0.20;;;;;;;5.35;54.48;98844.34;5054412;28;20039;-63
2021/09/26 15:24:20;;;;;;;0.20;0.20;;;;;;;5.30;54.76;98840.53;5066043;28;20044;-64
2021/09/26 15:26:45;;;;;;;0.38;0.38;;;;;;;5.29;54.72;98836.16;5059388;28;20051;-62
2021/09/26 15:29:11;;;;;;;0.28;0.28;;;;;;;5.33;54.67;98848.28;5064046;28;20458;-66
2021/09/26 15:31:40;;;;;;;0.20;0.20;;;;;;;5.32;54.75;98842.03;5062061;28;20076;-63
2021/09/26 15:34:06;;;;;;;0.20;0.20;;;;;;;5.31;54.54;98843.06;5061715;28;20033;-61
2021/09/26 15:36:33;;;;;;;0.20;0.20;;;;;;;5.33;54.55;98853.75;5057524;28;20040;-63
2021/09/26 15:38:59;;;;;;;1.35;0.65;;;;;;;5.35;54.52;98865.28;5063954;28;20051;-66
2021/09/26 15:41:26;;;;;;;0.20;0.20;;;;;;;5.31;54.46;98864.84;5067840;28;20051;-62
2021/09/26 15:43:53;;;;;;;0.20;0.20;;;;;;;5.30;54.64;98854.16;5063194;28;20408;-61
2021/09/26 15:46:19;;;;;;;0.20;0.20;;;;;;;5.28;54.40;98862.50;5064368;28;20425;-61
2021/09/26 15:48:44;;;;;;;0.20;0.20;;;;;;;5.26;54.41;98849.09;5064955;28;20907;-61
2021/09/26 15:51:12;;;;;;;0.30;0.30;;;;;;;5.29;54.40;98855.22;5059030;28;20135;-60
2021/09/26 15:53:39;;;;;;;0.22;0.22;;;;;;;5.34;54.31;98850.81;5059903;28;20071;-62
2021/09/26 15:56:08;;;;;;;0.22;0.22;;;;;;;5.43;54.08;98856.94;5061890;28;20044;-62
2021/09/26 15:58:34;;;;;;;0.65;0.30;;;;;;;5.46;53.96;98859.25;5057672;28;20068;-63
2021/09/26 16:01:00;;;;;;;0.30;0.30;;;;;;;5.40;53.98;98871.81;5058790;28;20039;-62
2021/09/26 16:03:27;;;;;;;0.50;0.50;;;;;;;5.36;54.24;98856.94;5060559;28;20040;-65
2021/09/26 16:05:53;;;;;;;0.32;0.32;;;;;;;5.30;54.29;98863.16;5059006;28;20044;-64
2021/09/26 16:08:19;;;;;;;0.10;0.10;;;;;;;5.30;54.28;98865.91;5064694;28;20045;-64
2021/09/26 16:10:49;;;;;;;0.40;0.40;;;;;;;5.32;54.13;98863.81;5048523;28;20376;-64
2021/09/26 16:13:16;;;;;;;0.20;0.20;;;;;;;5.35;54.14;98870.75;5058081;28;20095;-67
2021/09/26 16:15:43;;;;;;;0.70;0.50;;;;;;;5.38;54.04;98859.44;5058347;28;20090;-66
2021/09/26 16:18:15;;;;;;;0.22;0.22;;;;;;;5.39;53.99;98866.59;5057737;28;20123;-65
2021/09/26 16:20:42;;;;;;;0.20;0.20;;;;;;;5.42;53.70;98855.28;5053437;28;20066;-65
2021/09/26 16:23:12;;;;;;;0.20;0.20;;;;;;;5.40;53.97;98860.94;5049584;28;20037;-62
2021/09/26 16:25:40;;;;;;;0.20;0.20;;;;;;;5.39;53.87;98866.59;5057197;28;20033;-63